Barbados Meteorological Services
Auto gathered TAF list
Powered by Apparatus software
For Flight EI30
Contact Number 1-(246)-535-0021/2/3/4/5/6
WEB: http://www.barbadosweather.org

**********************************************

2021/12/06 18:31
TAF TBPB 061700Z 0618/0718 08022KT 9999 SCT018= TAF TVSA 061700Z 0618/0718 07015KT 9999 SCT018


**********************************************
2021/12/06 18:12
TAF TAF TAPA 061700Z 0618/0718 08012KT 9999 SCT018 PROB40
TEMPO 0618/0710 SHRA


**********************************************
2021/12/06 18:18
TAF LPPR 061700Z 0618/0718 18010KT 6000 -RA SCT002 BKN004
TEMPO 0618/0707 2000 DZRA BR OVC002 PROB40
TEMPO 0618/0707 1200 DZRA PRFG SCT000 OVC001
BECMG 0707/0710 22015KT 8000 NSW SCT006 SCT012
TEMPO 0713/0716 22018G30KT 2000 RADZ BR SCT002 BKN004
BECMG 0716/0718 30013KT 9999 SCT020


**********************************************
2021/12/06 18:18
TAF LPPD 061700Z 0618/0718 26012KT 9999 FEW020 BKN040
TEMPO 0618/0705 SCT025
BECMG 0705/0708 30015KT SCT012 BKN030
TEMPO 0708/0713 3000 -RADZ BR SCT004 BKN008
BECMG 0710/0713 36015KT
TEMPO 0713/0718 01015G25KT
BECMG 0716/0718 SCT018


**********************************************
2021/12/06 18:18
TAF LPLA 061702Z 0618/0718 30008KT 9999 FEW020 SCT035
TEMPO 0704/0710 5000 -DZRA BR SCT004 SCT014 BKN020
BECMG 0707/0709 35012KT


**********************************************
2021/12/06 18:18
TAF TAF LPAZ 061700Z 0618/0724 30007KT 9999 FEW020 BKN035
TEMPO 0618/0706 SCT025
BECMG 0621/0624 27010KT
BECMG 0706/0709 30013KT SCT012 BKN030 PROB30
TEMPO 0709/0714 5000 -RADZ BR SCT006 BKN012
BECMG 0714/0717 02015KT
BECMG 0718/0721 SCT020


**********************************************
2021/12/06 18:27
TAF TAF LEVT 061700Z 0618/0718 23009KT 9000 SCT010 BKN020 TX11/0714Z TN07/0704Z
TEMPO 0618/0706 3000 -RADZ BR BKN010 PROB40
TEMPO 0618/0620 3000 RA PROB40
TEMPO 0623/0706 1500 -DZ BR BKN005


**********************************************
2021/12/06 18:27
TAF LEMD 061700Z 0618/0724 VRB05KT 9999 FEW045 TX12/0715Z TN02/0706Z PROB30
TEMPO 0618/0623 28010KT PROB30
TEMPO 0701/0709 3000 BR BKN014 PROB30
TEMPO 0703/0708 0800 FG VV002
BECMG 0712/0714 24012KT PROB40
TEMPO 0714/0724 24015G29KT


**********************************************
2021/12/06 18:27
TAF ELLX 061700Z 0618/0724 18007KT 6000 BKN020
BECMG 0618/0620 3500 -SN BKN006
TEMPO 0618/0701 26010G20KT 1200 SN BKN004
BECMG 0701/0703 26010KT 8000 BKN010
TEMPO 0704/0711 4000 BR BKN006
BECMG 0711/0713 18010KT BKN015


**********************************************
2021/12/06 18:15
TAF EGPK 061657Z 0618/0718 27016KT 9999 SCT020 BKN028
TEMPO 0618/0703 27020G30KT 6000 SHRA BKN014CB PROB30
TEMPO 0618/0624 3000 +SHRAGS BKN009
BECMG 0703/0706 14006KT
BECMG 0708/0711 10020G32KT PROB30
TEMPO 0709/0712 7000 -RASN
TEMPO 0712/0718 11026G42KT 6000 RASN BKN010 PROB30
TEMPO 0712/0717 1500 SN BKN004


**********************************************
2021/12/06 18:51
TAF EGLL 061704Z 0618/0724 28010KT 9999 SCT025
BECMG 0703/0706 20005KT
BECMG 0709/0712 14012KT
BECMG 0712/0715 15018G28KT
TEMPO 0712/0718 3000 +RA BKN010
BECMG 0715/0718 20010KT
BECMG 0718/0721 20017G27KT PROB30
TEMPO 0720/0724 4000 +SHRA BKN014


**********************************************
2021/12/06 18:15
TAF EGKK 061654Z 0618/0724 25006KT 9999 FEW020 PROB30
TEMPO 0618/0619 6000 SHRA BKN014 PROB30 0704/0709 8000
BECMG 0706/0709 12010KT
BECMG 0710/0713 16016G28KT
TEMPO 0713/0718 6000 RA BKN012 PROB40
TEMPO 0715/0718 15020G38KT 4000 +RA
BECMG 0717/0720 22015G25KT PROB30
TEMPO 0718/0724 22018G35KT 4000 +SHRAGS BKN014CB


**********************************************
2021/12/06 18:15
TAF TAF EGFF 061700Z 0618/0718 27015KT 9999 SCT025
TEMPO 0618/0622 28018G30KT PROB30
TEMPO 0618/0619 6000 SHRA BKN013
BECMG 0623/0702 VRB03KT
BECMG 0703/0706 16011KT
BECMG 0707/0710 14022G35KT PROB30
TEMPO 0708/0710 8000 -RA
TEMPO 0710/0714 3000 +RA BKN012 PROB30
TEMPO 0710/0713 15027G45KT
BECMG 0712/0714 19015KT
TEMPO 0713/0718 21020G32KT PROB30
TEMPO 0714/0718 6000 SHRA BKN012


**********************************************
2021/12/06 18:15
TAF EGCC 061702Z 0618/0724 26012KT 9999 SCT035
TEMPO 0618/0624 28018G28KT 5000 SHRA PROB30
TEMPO 0618/0624 3000 +SHRA BKN008 BKN035CB PROB30
TEMPO 0700/0703 6000 SHRA
BECMG 0701/0704 18007KT
BECMG 0709/0712 13022G32KT
TEMPO 0712/0717 14025G42KT 5000 RA BKN008 PROB30
TEMPO 0713/0717 3000 +RA BKN004
BECMG 0715/0718 16018G28KT
TEMPO 0721/0724 16024G38KT 6000 SHRA


**********************************************
2021/12/06 18:27
TAF TAF EDDF 061700Z 0618/0724 18006KT 9999 FEW010 BKN025
BECMG 0621/0623 4500 -SNRA SCT008 BKN012 PROB30
TEMPO 0700/0703 1200 SN OVC003
BECMG 0703/0707 9000 SCT010 BKN025 PROB30
TEMPO 0707/0709 4000 BR BKN009
BECMG 0708/0711 24008KT
BECMG 0713/0716 15005KT FEW020
BECMG 0718/0721 09005KT


**********************************************
2021/12/06 18:27
TAF TAF EBBR 061700Z 0618/0724 19012KT 9999 BKN020
TEMPO 0618/0621 3000 RA RASN SCT007 BKN012
BECMG 0620/0622 26012KT
BECMG 0708/0710 20009KT
TEMPO 0720/0722 4000 RA SCT008 BKN012


**********************************************